createdAt,value
2023-04-30T20:25:29.551Z,22.28
2023-04-30T20:27:57.285Z,21.37
2023-04-30T20:30:24.002Z,21.45
2023-04-30T20:32:50.677Z,21.27
2023-04-30T20:35:17.389Z,20.98
2023-04-30T20:37:44.353Z,21.07
2023-04-30T20:40:11.534Z,21.57
2023-04-30T20:42:40.583Z,21.15
2023-04-30T20:45:07.748Z,21.12
2023-04-30T20:47:34.278Z,20.97
2023-04-30T20:50:00.971Z,21.31
2023-04-30T20:52:27.657Z,20.66
2023-04-30T20:54:54.766Z,20.53
2023-04-30T20:57:21.263Z,20.40
2023-04-30T20:59:47.753Z,20.42
2023-04-30T21:02:14.350Z,20.40
2023-04-30T21:04:40.996Z,20.25
2023-04-30T21:07:07.542Z,20.50
2023-04-30T21:09:35.604Z,20.23
2023-04-30T21:12:04.919Z,20.85
2023-04-30T21:14:32.124Z,20.52
2023-04-30T21:16:59.481Z,20.68
2023-04-30T21:19:26.608Z,20.69
2023-04-30T21:21:53.371Z,21.32
2023-04-30T21:24:20.927Z,20.57
2023-04-30T21:26:47.616Z,20.52
2023-04-30T21:29:14.902Z,20.69
2023-04-30T21:31:41.472Z,20.54
2023-04-30T21:34:08.222Z,20.47
2023-04-30T21:36:35.399Z,20.45
2023-04-30T21:39:02.062Z,20.49
2023-04-30T21:41:28.610Z,20.59
2023-04-30T21:43:55.587Z,20.25
2023-04-30T21:46:22.580Z,20.55
2023-04-30T21:48:49.613Z,20.67
2023-04-30T21:51:17.033Z,20.95
2023-04-30T21:53:45.302Z,21.45
2023-04-30T21:56:12.768Z,21.23
2023-04-30T21:58:39.462Z,21.32
2023-04-30T22:01:06.359Z,21.03
2023-04-30T22:03:33.346Z,21.36
2023-04-30T22:06:00.705Z,21.37
2023-04-30T22:08:28.241Z,21.18
2023-04-30T22:10:56.811Z,21.13
2023-04-30T22:13:23.382Z,21.66
2023-04-30T22:15:50.562Z,21.56
2023-04-30T22:18:17.194Z,21.38
2023-04-30T22:20:44.598Z,20.90
2023-04-30T22:23:11.650Z,21.39
2023-04-30T22:25:38.173Z,21.46
2023-04-30T22:28:04.920Z,20.88
2023-04-30T22:30:31.444Z,20.76
2023-04-30T22:32:58.003Z,20.74
2023-04-30T22:35:27.444Z,20.66
2023-04-30T22:37:54.012Z,20.60
2023-04-30T22:40:21.030Z,20.74
2023-04-30T22:42:48.161Z,20.63
2023-04-30T22:45:14.906Z,20.76
2023-04-30T22:47:42.107Z,20.79
2023-04-30T22:50:09.830Z,20.57
2023-04-30T22:52:36.714Z,20.54
2023-04-30T22:55:05.473Z,20.84
2023-04-30T22:57:32.174Z,20.43
2023-04-30T22:59:59.205Z,20.71
2023-04-30T23:02:26.287Z,20.73
2023-04-30T23:04:52.862Z,20.93
2023-04-30T23:07:19.429Z,20.59
2023-04-30T23:09:45.965Z,20.48
2023-04-30T23:12:12.765Z,20.59
2023-04-30T23:14:39.264Z,20.67
2023-04-30T23:17:06.211Z,20.77
2023-04-30T23:19:33.395Z,20.91
2023-04-30T23:21:59.892Z,20.95
2023-04-30T23:24:27.069Z,20.93
2023-04-30T23:26:55.129Z,21.12
2023-04-30T23:29:21.877Z,21.47
2023-04-30T23:31:48.544Z,20.96
2023-04-30T23:34:15.507Z,21.21
2023-04-30T23:36:42.011Z,21.24
2023-04-30T23:39:10.094Z,20.91
2023-04-30T23:41:36.650Z,21.21
2023-04-30T23:44:03.776Z,20.90
2023-04-30T23:46:30.903Z,21.00
2023-04-30T23:48:57.426Z,21.29
2023-04-30T23:51:24.376Z,21.47
2023-04-30T23:53:50.981Z,21.42
2023-04-30T23:56:17.507Z,21.56
2023-04-30T23:58:44.160Z,21.33
